Time;durP1;ratioP1;P1;durP2;ratioP2;P2;SDS_P1;SDS_P2;PMS_P1;PMS_P2;Temp;Humidity;BMP_temperature;BMP_pressure;BME280_temperature;BME280_humidity;BME280_pressure;Samples;Min_cycle;Max_cycle;Signal;HPM_P1;HPM_P2
2021/06/17 00:00:09;;;;;;;1.62;0.80;;;23.70;61.20;;;;;;4374039;32;20105;-37
2021/06/17 00:02:35;;;;;;;5.45;2.10;;;23.60;61.40;;;;;;4387846;32;20066;-36
2021/06/17 00:05:04;;;;;;;3.78;2.00;;;23.60;61.70;;;;;;4387379;32;20150;-37
2021/06/17 00:07:31;;;;;;;6.53;1.85;;;23.50;61.60;;;;;;4388234;32;20089;-36
2021/06/17 00:09:57;;;;;;;7.62;2.47;;;23.50;61.90;;;;;;4387986;32;20159;-37
2021/06/17 00:12:24;;;;;;;2.83;1.60;;;23.60;61.70;;;;;;4375117;32;20170;-37
2021/06/17 00:14:50;;;;;;;13.43;3.08;;;23.60;61.70;;;;;;4387442;32;20569;-37
2021/06/17 00:17:18;;;;;;;16.45;4.12;;;23.60;61.30;;;;;;4387920;32;20156;-36
2021/06/17 00:19:46;;;;;;;11.15;2.10;;;23.60;61.20;;;;;;4387996;32;20074;-36
2021/06/17 00:22:13;;;;;;;6.97;2.72;;;23.60;61.40;;;;;;4387909;32;20081;-36
2021/06/17 00:24:39;;;;;;;16.02;4.20;;;23.60;61.20;;;;;;4387338;32;20172;-35
2021/06/17 00:27:06;;;;;;;6.30;3.05;;;23.60;61.10;;;;;;4387488;32;20065;-37
2021/06/17 00:29:33;;;;;;;9.50;3.15;;;23.50;61.30;;;;;;4387342;32;20061;-36
2021/06/17 00:31:59;;;;;;;16.95;5.53;;;23.60;61.20;;;;;;4362778;32;20077;-36
2021/06/17 00:34:25;;;;;;;22.00;5.03;;;23.50;61.10;;;;;;4374036;32;20065;-37
2021/06/17 00:36:52;;;;;;;10.88;5.32;;;23.60;61.10;;;;;;4362751;32;20090;-36
2021/06/17 00:39:18;;;;;;;12.50;5.55;;;23.50;60.80;;;;;;4384946;32;20138;-37
2021/06/17 00:41:45;;;;;;;9.85;3.72;;;23.40;60.40;;;;;;4374874;32;20071;-37
2021/06/17 00:44:11;;;;;;;8.25;3.12;;;23.40;60.70;;;;;;4374803;32;20181;-37
2021/06/17 00:46:37;;;;;;;7.75;2.58;;;23.40;61.10;;;;;;4360744;32;20069;-35
2021/06/17 00:49:07;;;;;;;4.75;1.73;;;23.30;60.50;;;;;;4372965;32;20080;-35
2021/06/17 00:51:33;;;;;;;4.72;2.62;;;23.30;60.90;;;;;;4374627;32;20086;-35
2021/06/17 00:54:00;;;;;;;4.85;1.15;;;23.30;60.50;;;;;;4348519;32;20088;-37
2021/06/17 00:56:26;;;;;;;4.40;1.08;;;23.30;60.50;;;;;;4374539;32;20066;-37
2021/06/17 00:58:53;;;;;;;3.03;1.48;;;23.30;60.40;;;;;;4372715;32;20149;-37
2021/06/17 01:01:19;;;;;;;3.03;1.30;;;23.20;60.70;;;;;;4402361;32;20125;-36
2021/06/17 01:03:46;;;;;;;3.28;1.50;;;23.20;60.60;;;;;;4389671;32;20535;-36
2021/06/17 01:06:12;;;;;;;1.00;0.90;;;23.20;60.50;;;;;;4389662;32;20069;-36
2021/06/17 01:09:04;;;;;;;1.33;0.95;;;23.30;60.60;;;;;;4377045;32;20077;-37
2021/06/17 01:11:42;;;;;;;4.12;0.93;;;23.40;60.20;;;;;;4367137;32;20054;-36
2021/06/17 01:14:25;;;;;;;4.40;1.02;;;23.40;60.10;;;;;;4389267;32;20637;-36
2021/06/17 01:17:12;;;;;;;0.80;0.47;;;23.50;59.90;;;;;;4390753;32;20065;-36
2021/06/17 01:20:08;;;;;;;5.57;1.35;;;23.60;59.60;;;;;;4389352;32;20153;-35
2021/06/17 01:22:50;;;;;;;2.90;0.75;;;23.70;59.10;;;;;;4402452;32;20070;-36
2021/06/17 01:25:58;;;;;;;3.30;1.02;;;23.80;58.80;;;;;;4390424;32;20077;-35
2021/06/17 01:28:24;;;;;;;1.25;1.05;;;23.90;58.50;;;;;;4389647;32;20877;-35
2021/06/17 01:31:08;;;;;;;2.58;1.02;;;23.90;58.40;;;;;;4377028;32;20083;-35
2021/06/17 01:33:42;;;;;;;2.70;1.33;;;23.90;58.30;;;;;;4364510;32;20195;-36
2021/06/17 01:36:22;;;;;;;1.73;1.58;;;23.90;58.10;;;;;;4377678;32;20215;-35
2021/06/17 01:38:57;;;;;;;5.37;0.90;;;23.90;57.90;;;;;;4368908;32;20065;-35
2021/06/17 01:41:31;;;;;;;2.17;0.80;;;24.00;57.90;;;;;;4372698;32;20128;-35
2021/06/17 01:43:59;;;;;;;3.37;0.90;;;24.10;57.80;;;;;;4373792;32;20069;-36
2021/06/17 01:46:26;;;;;;;2.05;1.15;;;24.20;57.30;;;;;;4373541;32;20131;-37
2021/06/17 01:48:54;;;;;;;1.40;0.40;;;24.20;56.70;;;;;;4372335;32;20054;-36
2021/06/17 01:51:24;;;;;;;3.67;1.02;;;24.30;56.60;;;;;;4372050;32;20077;-37
2021/06/17 01:53:51;;;;;;;6.32;1.10;;;24.40;56.10;;;;;;4372101;32;20162;-36
2021/06/17 01:56:23;;;;;;;3.87;1.20;;;24.50;55.60;;;;;;4371747;32;20074;-36
2021/06/17 01:58:57;;;;;;;3.12;1.00;;;24.50;55.50;;;;;;4372338;32;20073;-36
2021/06/17 02:01:29;;;;;;;5.93;1.30;;;24.60;55.00;;;;;;4359383;32;20066;-36
2021/06/17 02:03:56;;;;;;;3.92;1.33;;;24.70;54.90;;;;;;4371928;32;20066;-36
2021/06/17 02:06:22;;;;;;;2.17;1.02;;;24.70;55.20;;;;;;4371973;32;20128;-36
2021/06/17 02:08:53;;;;;;;0.50;0.45;;;24.80;54.70;;;;;;4371636;32;20518;-35
2021/06/17 02:11:20;;;;;;;4.45;0.85;;;24.80;54.70;;;;;;4358504;32;20105;-36
2021/06/17 02:13:47;;;;;;;4.12;1.33;;;24.90;54.40;;;;;;4345976;32;20066;-36
2021/06/17 02:16:13;;;;;;;0.98;0.75;;;25.00;54.10;;;;;;4328657;33;20077;-36
2021/06/17 02:18:40;;;;;;;2.33;1.25;;;24.90;54.10;;;;;;4304413;33;20623;-38
2021/06/17 02:21:09;;;;;;;1.60;1.20;;;24.90;53.90;;;;;;4328950;33;20150;-37
2021/06/17 02:23:37;;;;;;;3.70;1.00;;;24.90;53.80;;;;;;4317100;33;20074;-37
2021/06/17 02:26:07;;;;;;;0.73;0.60;;;24.90;54.00;;;;;;4341208;32;20055;-37
2021/06/17 02:28:42;;;;;;;2.17;0.80;;;24.90;53.90;;;;;;4316798;33;20061;-36
2021/06/17 02:31:11;;;;;;;2.62;1.52;;;25.00;53.60;;;;;;4329485;33;20103;-35
2021/06/17 02:33:38;;;;;;;3.20;1.20;;;25.00;53.00;;;;;;4329540;33;20047;-37
2021/06/17 02:36:05;;;;;;;3.33;0.90;;;25.00;53.20;;;;;;4329016;33;20151;-36
2021/06/17 02:38:36;;;;;;;1.87;0.70;;;25.00;53.10;;;;;;4328680;33;20542;-36
2021/06/17 02:41:08;;;;;;;3.30;0.90;;;25.00;53.90;;;;;;4328465;32;20067;-36
2021/06/17 02:43:38;;;;;;;1.20;0.90;;;25.00;53.00;;;;;;4343595;32;20074;-36
2021/06/17 02:46:05;;;;;;;3.72;1.33;;;25.00;52.80;;;;;;4356097;32;20123;-37
2021/06/17 02:48:31;;;;;;;2.28;1.05;;;25.10;52.60;;;;;;4371613;32;20093;-36
2021/06/17 02:50:58;;;;;;;1.45;1.02;;;25.00;52.30;;;;;;4371397;32;20066;-36
2021/06/17 02:53:24;;;;;;;1.17;0.75;;;25.00;52.40;;;;;;4373141;32;20074;-36
2021/06/17 02:55:51;;;;;;;5.45;1.10;;;25.00;52.50;;;;;;4372633;32;20070;-36
2021/06/17 02:59:00;;;;;;;3.08;0.90;;;25.00;52.30;;;;;;4371011;32;20089;-36
2021/06/17 03:01:47;;;;;;;1.98;0.90;;;25.00;52.40;;;;;;4363805;32;20055;-36
2021/06/17 03:04:23;;;;;;;1.40;0.77;;;25.00;52.50;;;;;;4372490;32;20066;-36
2021/06/17 03:06:52;;;;;;;1.48;0.70;;;25.10;52.40;;;;;;4382975;32;20498;-36
2021/06/17 03:09:31;;;;;;;5.22;0.93;;;25.20;52.50;;;;;;4386489;32;20133;-36
2021/06/17 03:11:58;;;;;;;4.75;1.83;;;25.20;51.90;;;;;;4388018;32;20495;-36
2021/06/17 03:14:29;;;;;;;5.30;1.77;;;25.20;51.50;;;;;;4386582;32;20077;-35
2021/06/17 03:16:56;;;;;;;3.28;1.45;;;25.10;51.80;;;;;;4386673;32;20073;-36
2021/06/17 03:19:23;;;;;;;2.28;1.02;;;25.00;52.30;;;;;;4386570;32;20422;-37
2021/06/17 03:21:52;;;;;;;3.58;0.80;;;24.90;52.40;;;;;;4386707;32;20074;-36
2021/06/17 03:24:23;;;;;;;3.60;0.90;;;24.90;52.80;;;;;;4386402;32;20076;-36
2021/06/17 03:26:50;;;;;;;8.27;2.22;;;24.90;52.90;;;;;;4387556;32;20473;-36
2021/06/17 03:29:17;;;;;;;0.70;0.70;;;25.00;52.90;;;;;;4361279;32;20469;-36
2021/06/17 03:31:43;;;;;;;6.20;1.95;;;25.20;52.50;;;;;;4386041;32;20066;-35
2021/06/17 03:34:10;;;;;;;3.47;1.02;;;25.30;52.20;;;;;;4373874;32;20077;-36
2021/06/17 03:36:36;;;;;;;1.37;0.70;;;25.40;52.40;;;;;;4386325;32;20109;-37
2021/06/17 03:39:05;;;;;;;1.42;1.10;;;25.50;51.50;;;;;;4361257;32;20098;-36
2021/06/17 03:41:31;;;;;;;3.25;1.27;;;25.50;51.10;;;;;;4373601;32;20070;-37
2021/06/17 03:43:58;;;;;;;4.70;1.23;;;25.40;50.80;;;;;;4373572;32;20076;-36
2021/06/17 03:46:24;;;;;;;2.35;1.23;;;25.50;51.20;;;;;;4387630;32;20073;-36
2021/06/17 03:48:52;;;;;;;6.47;1.15;;;25.50;51.20;;;;;;4364637;32;20082;-36
2021/06/17 03:51:19;;;;;;;3.40;1.50;;;25.50;51.20;;;;;;4355941;32;20058;-36
2021/06/17 03:53:45;;;;;;;1.70;1.23;;;25.40;51.10;;;;;;4343559;32;20078;-34
2021/06/17 03:56:13;;;;;;;2.65;1.25;;;25.30;51.40;;;;;;4343446;32;20047;-37
2021/06/17 03:58:43;;;;;;;2.40;1.52;;;25.20;51.40;;;;;;4356541;32;20070;-36
2021/06/17 04:01:10;;;;;;;3.30;1.48;;;25.00;51.70;;;;;;4357924;32;20070;-36
2021/06/17 04:03:36;;;;;;;1.80;1.12;;;24.80;52.10;;;;;;4356206;32;20055;-36
2021/06/17 04:06:03;;;;;;;6.15;2.03;;;24.70;52.40;;;;;;4329969;32;20062;-36
2021/06/17 04:08:32;;;;;;;1.70;1.45;;;24.70;52.50;;;;;;4343499;32;20141;-37
2021/06/17 04:11:00;;;;;;;1.85;1.40;;;24.70;52.70;;;;;;4345108;32;20078;-36
2021/06/17 04:13:28;;;;;;;2.12;1.92;;;24.70;53.00;;;;;;4357517;32;20058;-36
2021/06/17 04:15:55;;;;;;;3.20;1.77;;;24.80;52.50;;;;;;4345190;32;20067;-36
2021/06/17 04:18:24;;;;;;;3.72;1.65;;;24.90;52.00;;;;;;4345363;32;20533;-37
2021/06/17 04:20:52;;;;;;;2.25;0.80;;;24.90;51.70;;;;;;4345064;32;20086;-36
2021/06/17 04:23:20;;;;;;;1.60;1.10;;;24.80;51.80;;;;;;4357384;32;20596;-37
2021/06/17 04:25:46;;;;;;;13.23;1.35;;;24.80;51.90;;;;;;4357668;32;20561;-36
2021/06/17 04:28:13;;;;;;;5.95;0.90;;;24.80;52.20;;;;;;4345037;32;20073;-38
2021/06/17 04:30:40;;;;;;;3.37;2.00;;;24.80;52.20;;;;;;4344999;32;20082;-37
2021/06/17 04:33:10;;;;;;;2.95;1.80;;;24.70;52.10;;;;;;4344425;32;20186;-36
2021/06/17 04:35:37;;;;;;;7.32;1.70;;;24.70;51.90;;;;;;4357598;32;20170;-37
2021/06/17 04:38:04;;;;;;;3.30;1.37;;;24.60;52.20;;;;;;4356797;32;20074;-35
2021/06/17 04:40:32;;;;;;;2.50;1.15;;;24.60;52.00;;;;;;4358234;32;20069;-37
2021/06/17 04:42:59;;;;;;;2.50;1.65;;;24.60;51.90;;;;;;4359770;32;20586;-35
2021/06/17 04:45:28;;;;;;;5.05;1.62;;;24.70;51.80;;;;;;4357727;32;20095;-36
2021/06/17 04:47:57;;;;;;;2.28;1.67;;;24.70;51.50;;;;;;4362500;32;20055;-37
2021/06/17 04:50:24;;;;;;;1.52;1.05;;;24.80;51.30;;;;;;4374448;32;20152;-36
2021/06/17 04:52:50;;;;;;;7.40;2.05;;;24.80;51.20;;;;;;4348164;32;20074;-38
2021/06/17 04:55:18;;;;;;;6.55;1.00;;;24.80;50.20;;;;;;4374230;32;20046;-36
2021/06/17 04:57:44;;;;;;;1.90;1.65;;;24.80;50.60;;;;;;4374553;32;20058;-36
2021/06/17 05:00:12;;;;;;;1.20;0.70;;;24.90;50.60;;;;;;4372597;32;20077;-36
2021/06/17 05:02:38;;;;;;;1.73;1.62;;;24.90;50.40;;;;;;4374556;32;20161;-36
2021/06/17 05:05:08;;;;;;;3.50;1.62;;;25.00;50.20;;;;;;4375960;32;20053;-36
2021/06/17 05:12:51;;;;;;;2.25;1.30;;;24.90;50.60;;;;;;4392187;32;20115;-37
2021/06/17 05:15:17;;;;;;;1.85;0.88;;;24.90;49.90;;;;;;4404173;32;20149;-36
2021/06/17 05:17:45;;;;;;;2.65;1.87;;;24.90;50.00;;;;;;4390237;32;20063;-37
2021/06/17 05:20:12;;;;;;;1.52;0.65;;;25.00;50.10;;;;;;4403809;32;20476;-37
2021/06/17 05:22:41;;;;;;;7.12;2.83;;;25.10;50.00;;;;;;4404282;32;20078;-36
2021/06/17 05:25:08;;;;;;;3.20;1.12;;;25.40;50.40;;;;;;4389948;32;20062;-36
2021/06/17 05:27:36;;;;;;;1.40;1.10;;;25.50;48.00;;;;;;4404101;32;20165;-38
2021/06/17 05:30:05;;;;;;;2.92;2.03;;;25.70;47.30;;;;;;4390124;32;20069;-36
2021/06/17 05:32:31;;;;;;;2.92;0.90;;;25.70;46.90;;;;;;4403917;32;20444;-37
2021/06/17 05:34:58;;;;;;;1.83;1.10;;;25.80;47.90;;;;;;4404198;32;20529;-36
2021/06/17 05:37:24;;;;;;;1.10;0.90;;;25.90;47.10;;;;;;4403643;32;20605;-37
2021/06/17 05:39:51;;;;;;;4.47;1.17;;;26.00;46.70;;;;;;4403254;32;20065;-36
2021/06/17 05:42:18;;;;;;;4.20;2.10;;;25.90;46.40;;;;;;4404144;32;20098;-37
2021/06/17 05:44:44;;;;;;;8.05;1.45;;;26.00;46.80;;;;;;4403575;32;20554;-38
2021/06/17 05:47:13;;;;;;;0.73;0.70;;;25.90;46.90;;;;;;4403539;32;20061;-37
2021/06/17 05:49:39;;;;;;;2.87;1.02;;;25.80;46.90;;;;;;4388119;32;21023;-36
2021/06/17 05:52:07;;;;;;;2.17;1.05;;;25.80;47.30;;;;;;4374270;32;20153;-37
2021/06/17 05:54:33;;;;;;;5.50;1.92;;;25.70;47.30;;;;;;4388374;32;20069;-36
2021/06/17 05:56:59;;;;;;;3.28;1.37;;;25.70;47.30;;;;;;4388332;32;20058;-37
2021/06/17 05:59:26;;;;;;;2.53;1.30;;;25.80;47.50;;;;;;4388213;32;20156;-36
2021/06/17 06:01:52;;;;;;;1.60;1.40;;;25.90;46.10;;;;;;4388021;32;20150;-36
2021/06/17 06:04:19;;;;;;;1.90;1.23;;;26.00;45.50;;;;;;4388258;32;20149;-36
2021/06/17 06:06:45;;;;;;;1.95;1.12;;;26.00;45.60;;;;;;4371936;32;20089;-37
2021/06/17 06:09:13;;;;;;;2.70;1.00;;;26.10;45.20;;;;;;4373286;32;20077;-37
2021/06/17 06:11:40;;;;;;;3.22;1.15;;;26.30;45.70;;;;;;4372988;32;20070;-36
2021/06/17 06:14:06;;;;;;;1.40;0.98;;;26.40;45.00;;;;;;4373271;32;20175;-37
2021/06/17 06:16:35;;;;;;;2.30;1.40;;;26.50;44.60;;;;;;4373320;32;20148;-37
2021/06/17 06:19:01;;;;;;;0.47;0.40;;;26.50;42.60;;;;;;4371467;32;20066;-37
2021/06/17 06:21:28;;;;;;;1.62;0.82;;;26.60;42.00;;;;;;4373166;32;20069;-36
2021/06/17 06:23:54;;;;;;;1.50;1.17;;;26.70;42.90;;;;;;4372916;32;20054;-35
2021/06/17 06:26:21;;;;;;;4.30;0.95;;;26.80;43.20;;;;;;4373167;32;20085;-37
2021/06/17 06:28:47;;;;;;;0.70;0.60;;;27.00;42.90;;;;;;4372039;32;20062;-37
2021/06/17 06:31:14;;;;;;;0.85;0.80;;;27.10;43.30;;;;;;4372656;32;20137;-38
2021/06/17 06:33:40;;;;;;;1.55;0.98;;;27.20;43.20;;;;;;4371885;32;20071;-37
2021/06/17 06:36:07;;;;;;;2.12;1.50;;;27.10;42.70;;;;;;4371223;32;20058;-36
2021/06/17 06:38:33;;;;;;;2.05;1.42;;;27.20;42.00;;;;;;4373267;32;20074;-37
2021/06/17 06:41:00;;;;;;;1.15;0.90;;;27.20;41.60;;;;;;4372833;32;20073;-36
2021/06/17 06:43:27;;;;;;;2.10;0.90;;;27.20;41.60;;;;;;4371716;32;20074;-37
2021/06/17 06:45:53;;;;;;;5.35;1.00;;;27.30;41.90;;;;;;4371123;32;20069;-37
2021/06/17 06:48:19;;;;;;;1.30;1.05;;;27.30;41.40;;;;;;4372602;32;20085;-36
2021/06/17 06:50:48;;;;;;;1.30;0.60;;;27.40;41.50;;;;;;4372881;32;20070;-35
2021/06/17 06:53:14;;;;;;;1.50;0.93;;;27.40;41.40;;;;;;4373121;32;20067;-36
2021/06/17 06:55:41;;;;;;;1.27;0.62;;;27.30;40.90;;;;;;4372853;32;20462;-36
2021/06/17 06:58:08;;;;;;;4.00;1.30;;;27.20;41.30;;;;;;4372702;32;20088;-38
2021/06/17 07:00:38;;;;;;;2.35;1.20;;;27.20;41.10;;;;;;4371104;32;20470;-36
2021/06/17 07:03:05;;;;;;;0.95;0.60;;;27.30;41.30;;;;;;4372776;32;20059;-36
2021/06/17 07:05:32;;;;;;;0.80;0.62;;;27.30;40.10;;;;;;4374355;32;20146;-36
2021/06/17 07:07:59;;;;;;;4.68;0.60;;;27.40;40.40;;;;;;4387686;32;20068;-37
2021/06/17 07:10:26;;;;;;;2.85;0.80;;;27.40;39.60;;;;;;4387566;32;20553;-37
2021/06/17 07:12:52;;;;;;;1.65;0.30;;;27.40;39.80;;;;;;4387955;32;20069;-37
2021/06/17 07:15:19;;;;;;;2.67;1.12;;;27.40;39.50;;;;;;4387402;32;20192;-37
2021/06/17 07:17:45;;;;;;;0.70;0.60;;;27.40;38.90;;;;;;4387855;32;20081;-37
2021/06/17 07:20:12;;;;;;;5.85;1.15;;;27.40;38.00;;;;;;4387695;32;20065;-38
2021/06/17 07:22:38;;;;;;;2.75;0.73;;;27.60;37.80;;;;;;4384940;32;20077;-36
2021/06/17 07:25:06;;;;;;;2.45;0.50;;;27.50;35.00;;;;;;4372982;32;20151;-37
2021/06/17 07:27:32;;;;;;;1.55;0.50;;;27.30;34.00;;;;;;4385367;32;20086;-36
2021/06/17 07:29:58;;;;;;;0.30;0.30;;;27.20;33.80;;;;;;4373075;32;20163;-36
2021/06/17 07:32:25;;;;;;;0.47;0.40;;;27.20;34.00;;;;;;4385246;32;20047;-36
2021/06/17 07:34:51;;;;;;;2.90;0.40;;;27.30;34.20;;;;;;4385456;32;20069;-36
2021/06/17 07:37:18;;;;;;;1.40;0.40;;;27.50;33.30;;;;;;4372458;32;20530;-38
2021/06/17 07:39:44;;;;;;;1.10;0.40;;;27.70;33.50;;;;;;4385431;32;20216;-37
2021/06/17 07:42:11;;;;;;;2.15;0.52;;;28.00;31.70;;;;;;4384892;32;20090;-36
2021/06/17 07:44:37;;;;;;;2.75;0.50;;;28.00;30.70;;;;;;4386636;32;20192;-37
2021/06/17 07:47:04;;;;;;;2.78;0.40;;;28.00;28.90;;;;;;4388183;32;20153;-37
2021/06/17 07:49:31;;;;;;;2.75;0.50;;;28.00;28.50;;;;;;4327964;33;20162;-36
2021/06/17 07:51:58;;;;;;;0.47;0.30;;;28.00;28.80;;;;;;4328541;33;20202;-36
2021/06/17 07:54:25;;;;;;;0.88;0.47;;;28.00;28.80;;;;;;4328376;33;20059;-35
2021/06/17 07:56:52;;;;;;;1.37;0.50;;;28.10;28.50;;;;;;4328278;33;20107;-37
2021/06/17 07:59:21;;;;;;;0.20;0.20;;;28.20;28.50;;;;;;4328526;33;20142;-37
2021/06/17 08:01:48;;;;;;;0.37;0.25;;;28.20;28.80;;;;;;4328180;33;20642;-37
2021/06/17 08:04:14;;;;;;;1.00;0.30;;;28.30;28.60;;;;;;4328379;33;20082;-36
2021/06/17 08:06:41;;;;;;;6.70;0.50;;;28.40;28.30;;;;;;4338342;33;20086;-36
2021/06/17 08:09:07;;;;;;;0.77;0.50;;;28.50;28.50;;;;;;4342877;33;20078;-35
2021/06/17 08:11:34;;;;;;;0.28;0.28;;;28.50;28.10;;;;;;4312749;33;20105;-36
2021/06/17 08:14:01;;;;;;;1.42;0.50;;;28.50;28.10;;;;;;4313417;33;20541;-36
2021/06/17 08:16:27;;;;;;;3.35;0.43;;;28.50;27.70;;;;;;4313701;33;20078;-37
2021/06/17 08:18:54;;;;;;;1.37;0.40;;;28.50;27.40;;;;;;4313246;33;20197;-36
2021/06/17 08:21:22;;;;;;;0.40;0.32;;;28.40;27.60;;;;;;4350405;32;20089;-37
2021/06/17 08:23:48;;;;;;;0.30;0.30;;;28.30;27.60;;;;;;4357021;32;20168;-36
2021/06/17 08:26:15;;;;;;;0.55;0.30;;;28.40;28.20;;;;;;4344978;32;20482;-38
2021/06/17 08:28:41;;;;;;;0.37;0.20;;;28.50;27.90;;;;;;4344932;32;20090;-37
2021/06/17 08:31:09;;;;;;;1.05;0.50;;;28.70;28.40;;;;;;4357033;32;20074;-35
2021/06/17 08:33:36;;;;;;;0.85;0.32;;;28.80;26.90;;;;;;4357338;32;20058;-36
2021/06/17 08:36:07;;;;;;;1.67;0.60;;;28.80;27.40;;;;;;4357118;32;20075;-36
2021/06/17 08:38:36;;;;;;;0.90;0.32;;;29.00;27.60;;;;;;4357229;32;20074;-36
2021/06/17 08:41:03;;;;;;;0.98;0.20;;;29.10;27.10;;;;;;4357270;32;20077;-37
2021/06/17 08:43:30;;;;;;;5.65;0.65;;;29.10;28.00;;;;;;4372991;32;20090;-35
2021/06/17 08:45:57;;;;;;;0.40;0.30;;;29.10;28.00;;;;;;4375370;32;20126;-36
2021/06/17 08:48:23;;;;;;;0.85;0.20;;;29.20;27.80;;;;;;4382570;32;20563;-37
2021/06/17 08:50:53;;;;;;;2.25;0.30;;;29.20;27.40;;;;;;4389225;32;20582;-36
2021/06/17 08:53:21;;;;;;;0.40;0.28;;;29.10;26.90;;;;;;4387533;32;20659;-36
2021/06/17 08:55:47;;;;;;;1.98;0.30;;;29.10;27.10;;;;;;4389352;32;20094;-36
2021/06/17 08:58:14;;;;;;;1.08;0.40;;;29.00;27.20;;;;;;4389244;32;20627;-36
2021/06/17 09:00:42;;;;;;;1.37;0.20;;;29.00;27.20;;;;;;4389325;32;20054;-38
2021/06/17 09:03:11;;;;;;;1.52;0.30;;;29.10;27.80;;;;;;4389446;32;20528;-36
2021/06/17 09:05:41;;;;;;;4.78;0.70;;;29.20;27.90;;;;;;4393613;32;20570;-36
2021/06/17 09:08:08;;;;;;;0.62;0.30;;;29.20;27.10;;;;;;4390282;32;20064;-35
2021/06/17 09:10:39;;;;;;;0.62;0.20;;;29.30;27.40;;;;;;4390398;32;20069;-37
2021/06/17 09:13:06;;;;;;;1.25;0.30;;;29.40;27.20;;;;;;4404733;32;20064;-37
2021/06/17 09:15:49;;;;;;;1.85;0.20;;;29.50;27.60;;;;;;4390447;32;20698;-36
2021/06/17 09:18:25;;;;;;;1.75;0.30;;;29.60;27.30;;;;;;4391337;32;20062;-40
2021/06/17 09:20:55;;;;;;;1.58;0.30;;;29.80;27.10;;;;;;4390084;32;20503;-37
2021/06/17 09:23:37;;;;;;;1.00;0.32;;;29.80;26.40;;;;;;4404277;32;20103;-36
2021/06/17 09:26:13;;;;;;;2.15;0.30;;;29.90;26.50;;;;;;4404525;32;20050;-34
2021/06/17 09:28:49;;;;;;;0.43;0.30;;;29.90;26.60;;;;;;4404474;32;20066;-37
2021/06/17 09:31:23;;;;;;;0.30;0.20;;;30.00;26.50;;;;;;4404561;32;20061;-37
2021/06/17 09:33:50;;;;;;;2.58;0.30;;;29.90;25.80;;;;;;4403992;32;20061;-37
2021/06/17 09:36:20;;;;;;;1.95;0.40;;;30.00;26.30;;;;;;4389800;32;20082;-37
2021/06/17 09:38:49;;;;;;;0.57;0.30;;;30.00;25.90;;;;;;4390257;32;20069;-36
2021/06/17 09:41:42;;;;;;;0.62;0.30;;;30.10;26.20;;;;;;4389884;32;20061;-36
2021/06/17 09:44:39;;;;;;;0.90;0.30;;;30.00;25.40;;;;;;4403760;32;20083;-35
2021/06/17 09:47:19;;;;;;;2.17;0.20;;;30.10;25.60;;;;;;4403999;32;20166;-36
2021/06/17 09:49:46;;;;;;;0.45;0.20;;;30.20;26.00;;;;;;4389058;32;20072;-36
2021/06/17 09:52:14;;;;;;;0.40;0.30;;;30.20;25.50;;;;;;4388104;32;20093;-37
2021/06/17 09:54:43;;;;;;;0.20;0.10;;;30.20;25.00;;;;;;4388765;32;20066;-37
2021/06/17 09:57:23;;;;;;;0.60;0.20;;;30.30;25.30;;;;;;4388449;32;20489;-37
2021/06/17 09:59:55;;;;;;;1.65;0.30;;;30.40;25.40;;;;;;4370636;32;20062;-36
2021/06/17 10:02:23;;;;;;;0.82;0.30;;;30.40;24.90;;;;;;4358578;32;20711;-37
2021/06/17 10:04:50;;;;;;;2.30;0.30;;;30.40;24.90;;;;;;4370854;32;20062;-35
2021/06/17 10:07:17;;;;;;;0.20;0.20;;;30.50;25.00;;;;;;4357867;32;20149;-36
2021/06/17 10:09:47;;;;;;;0.10;0.10;;;30.60;25.40;;;;;;4370669;32;20078;-37
2021/06/17 10:12:14;;;;;;;0.37;0.20;;;30.60;25.30;;;;;;4370849;32;20104;-38
2021/06/17 10:14:40;;;;;;;0.40;0.28;;;30.60;25.20;;;;;;4371092;32;20155;-38
2021/06/17 10:17:07;;;;;;;0.40;0.17;;;30.70;25.00;;;;;;4370589;32;20156;-37
2021/06/17 10:19:34;;;;;;;4.18;0.30;;;30.60;25.10;;;;;;4370533;32;20095;-37
2021/06/17 10:22:01;;;;;;;0.93;0.30;;;30.70;25.30;;;;;;4370781;32;20116;-36
2021/06/17 10:24:29;;;;;;;0.57;0.30;;;30.60;25.00;;;;;;4328287;33;20596;-37
2021/06/17 10:26:58;;;;;;;0.20;0.20;;;30.60;25.00;;;;;;4328664;33;20121;-38
2021/06/17 10:29:28;;;;;;;0.95;0.40;;;30.50;25.10;;;;;;4340352;33;20181;-36
2021/06/17 10:31:58;;;;;;;0.90;0.43;;;30.60;24.80;;;;;;4354689;32;20090;-38
2021/06/17 10:34:25;;;;;;;0.20;0.10;;;30.50;25.10;;;;;;4343555;32;20436;-37
2021/06/17 10:37:18;;;;;;;2.75;0.20;;;30.50;25.10;;;;;;4355841;32;20545;-36
2021/06/17 10:40:16;;;;;;;1.12;0.13;;;30.60;24.70;;;;;;4355333;32;20082;-36
2021/06/17 10:42:51;;;;;;;3.47;0.37;;;30.40;25.00;;;;;;4355214;32;20255;-37
2021/06/17 10:45:33;;;;;;;3.67;0.50;;;30.30;25.10;;;;;;4355567;32;20085;-38
2021/06/17 10:48:01;;;;;;;0.60;0.30;;;30.40;25.80;;;;;;4360504;32;20178;-37
2021/06/17 10:50:47;;;;;;;1.00;0.30;;;30.20;25.20;;;;;;4370437;32;20076;-37
2021/06/17 10:53:22;;;;;;;0.20;0.10;;;30.10;25.30;;;;;;4370053;32;20139;-38
2021/06/17 10:56:01;;;;;;;1.20;0.30;;;30.10;25.50;;;;;;4377388;32;20094;-37
2021/06/17 10:58:46;;;;;;;0.30;0.20;;;30.00;25.90;;;;;;4403077;32;20598;-38
2021/06/17 11:01:39;;;;;;;0.50;0.30;;;30.00;25.40;;;;;;4403164;32;20061;-38
2021/06/17 11:04:08;;;;;;;0.20;0.17;;;30.00;25.10;;;;;;4389165;32;20093;-37
2021/06/17 11:06:53;;;;;;;2.62;0.40;;;30.10;25.40;;;;;;4388771;32;20080;-38
2021/06/17 11:09:46;;;;;;;0.45;0.20;;;30.10;25.70;;;;;;4402800;32;20087;-38
2021/06/17 11:12:23;;;;;;;0.40;0.30;;;30.00;25.80;;;;;;4402802;32;20078;-37
2021/06/17 11:14:57;;;;;;;0.52;0.30;;;30.10;25.60;;;;;;4402747;32;20108;-37
2021/06/17 11:17:30;;;;;;;1.80;0.30;;;30.20;25.90;;;;;;4403425;32;20176;-36
2021/06/17 11:20:23;;;;;;;0.13;0.13;;;30.40;26.00;;;;;;4391896;32;20061;-36
2021/06/17 11:22:58;;;;;;;1.00;0.30;;;30.40;25.70;;;;;;4391883;32;20533;-37
2021/06/17 11:25:27;;;;;;;1.48;0.65;;;30.40;26.00;;;;;;4405717;32;20062;-37
2021/06/17 11:28:14;;;;;;;3.37;0.50;;;30.40;25.60;;;;;;4392199;32;20155;-37
2021/06/17 11:30:41;;;;;;;0.70;0.30;;;30.50;25.80;;;;;;4405630;32;20176;-36
2021/06/17 11:33:17;;;;;;;0.50;0.30;;;30.40;25.40;;;;;;4406517;32;20062;-35
2021/06/17 11:35:54;;;;;;;0.60;0.35;;;30.30;25.80;;;;;;4405815;32;20069;-36
2021/06/17 11:38:29;;;;;;;0.10;0.10;;;30.10;25.60;;;;;;4405524;32;20081;-36
2021/06/17 11:40:56;;;;;;;1.25;0.40;;;30.00;25.90;;;;;;4406011;32;20060;-36
2021/06/17 11:43:27;;;;;;;1.42;0.30;;;29.90;26.00;;;;;;4391657;32;20070;-37
2021/06/17 11:45:54;;;;;;;0.70;0.40;;;30.00;26.20;;;;;;4405923;32;20073;-37
2021/06/17 11:48:21;;;;;;;0.98;0.35;;;30.00;25.90;;;;;;4397847;32;20511;-36
2021/06/17 11:50:52;;;;;;;0.43;0.30;;;29.80;26.10;;;;;;4390613;32;20588;-36
2021/06/17 11:53:24;;;;;;;2.50;0.30;;;29.80;26.00;;;;;;4390334;32;20104;-36
2021/06/17 11:55:55;;;;;;;1.75;0.20;;;29.80;25.90;;;;;;4389043;32;20066;-37
2021/06/17 11:58:29;;;;;;;3.37;0.30;;;29.80;26.10;;;;;;4390408;32;20062;-35
2021/06/17 12:00:57;;;;;;;0.37;0.20;;;29.80;26.20;;;;;;4390486;32;20072;-37
2021/06/17 12:03:25;;;;;;;0.50;0.30;;;30.00;26.10;;;;;;4390118;32;20158;-37
2021/06/17 12:05:52;;;;;;;0.32;0.20;;;29.90;25.70;;;;;;4390407;32;20139;-35
2021/06/17 12:08:25;;;;;;;1.12;0.45;;;30.00;25.60;;;;;;4376052;32;20059;-36
2021/06/17 12:10:57;;;;;;;0.32;0.20;;;29.90;25.80;;;;;;4388228;32;20123;-36
2021/06/17 12:13:24;;;;;;;1.83;0.40;;;30.00;26.30;;;;;;4390341;32;20066;-36
2021/06/17 12:15:56;;;;;;;0.57;0.25;;;30.10;25.90;;;;;;4388547;32;20073;-36
2021/06/17 12:18:23;;;;;;;4.03;0.68;;;30.10;25.80;;;;;;4389913;32;20566;-36
2021/06/17 12:20:50;;;;;;;1.50;0.30;;;30.10;26.00;;;;;;4388629;32;20073;-35
2021/06/17 12:23:22;;;;;;;0.40;0.30;;;30.20;26.00;;;;;;4390208;32;20153;-37
2021/06/17 12:26:02;;;;;;;0.77;0.30;;;30.00;25.50;;;;;;4390231;32;20054;-35
2021/06/17 12:28:29;;;;;;;0.20;0.20;;;29.90;25.90;;;;;;4389934;32;20061;-36
2021/06/17 12:30:57;;;;;;;0.28;0.25;;;29.90;26.00;;;;;;4389016;32;20064;-37
2021/06/17 12:33:34;;;;;;;4.35;0.50;;;29.80;25.80;;;;;;4389920;32;20136;-37
2021/06/17 12:36:19;;;;;;;0.50;0.20;;;29.90;25.80;;;;;;4390159;32;20081;-37
2021/06/17 12:38:46;;;;;;;1.05;0.37;;;29.80;26.00;;;;;;4389673;32;20520;-35
2021/06/17 12:41:21;;;;;;;0.30;0.30;;;29.70;26.00;;;;;;4389869;32;20148;-40
2021/06/17 12:43:51;;;;;;;2.25;0.35;;;29.70;25.90;;;;;;4389618;32;20074;-38
2021/06/17 12:46:28;;;;;;;0.25;0.20;;;29.70;25.80;;;;;;4389616;32;20073;-37
2021/06/17 12:52:02;;;;;;;;;;;29.60;25.70;;;;;;4389631;32;20061;-36
2021/06/17 12:54:40;;;;;;;1.83;0.35;;;29.60;26.00;;;;;;4389782;32;19968;-36
2021/06/17 12:57:10;;;;;;;0.45;0.28;;;29.60;26.10;;;;;;4389719;32;20073;-36
2021/06/17 12:59:43;;;;;;;0.98;0.43;;;29.60;26.20;;;;;;4389657;32;20062;-36
2021/06/17 13:02:40;;;;;;;0.30;0.23;;;29.70;25.70;;;;;;4389673;32;20069;-38
2021/06/17 13:05:16;;;;;;;0.82;0.40;;;29.70;25.60;;;;;;4389161;32;20200;-36
2021/06/17 13:08:06;;;;;;;3.40;0.50;;;29.70;25.80;;;;;;4388448;32;20077;-37
2021/06/17 13:10:43;;;;;;;0.88;0.37;;;29.70;25.80;;;;;;4389086;32;20058;-37